Time;durP1;ratioP1;P1;durP2;ratioP2;P2;SDS_P1;SDS_P2;PMS_P1;PMS_P2;Temp;Humidity;BMP_temperature;BMP_pressure;BME280_temperature;BME280_humidity;BME280_pressure;Samples;Min_cycle;Max_cycle;Signal;HPM_P1;HPM_P2
2024/03/07 00:01:55;;;;;;;51.07;19.03;;;2.30;1.00;;;;;;4390731;28;659166;-74
2024/03/07 00:04:42;;;;;;;59.67;20.20;;;2.30;1.00;;;;;;4394515;28;657582;-75
2024/03/07 00:07:30;;;;;;;50.50;18.23;;;2.30;1.00;;;;;;4405916;28;658398;-74
2024/03/07 00:10:17;;;;;;;52.22;20.17;;;2.30;1.00;;;;;;4397367;28;657198;-74
2024/03/07 00:13:07;;;;;;;55.63;21.03;;;2.30;1.00;;;;;;4407419;28;659040;-74
2024/03/07 00:15:54;;;;;;;66.00;21.75;;;2.30;1.00;;;;;;4377999;28;658480;-75
2024/03/07 00:18:42;;;;;;;57.13;20.90;;;2.20;1.00;;;;;;4410147;28;657207;-74
2024/03/07 00:21:29;;;;;;;58.53;21.93;;;2.30;1.00;;;;;;4386402;28;657497;-75
2024/03/07 00:24:16;;;;;;;57.17;22.20;;;2.30;1.00;;;;;;4411179;28;657674;-74
2024/03/07 00:27:03;;;;;;;59.30;21.30;;;2.30;1.00;;;;;;4376188;28;658284;-74
2024/03/07 00:29:53;;;;;;;55.45;20.00;;;2.30;1.00;;;;;;4408282;28;658547;-74
2024/03/07 00:32:41;;;;;;;59.45;21.80;;;2.30;1.00;;;;;;4385431;28;658424;-74
2024/03/07 00:35:28;;;;;;;60.60;22.30;;;2.30;1.00;;;;;;4387319;28;657638;-74
2024/03/07 00:38:15;;;;;;;46.47;19.23;;;2.30;1.00;;;;;;4409368;28;658122;-74
2024/03/07 00:41:03;;;;;;;53.30;20.47;;;2.30;1.00;;;;;;4391897;28;657933;-75
2024/03/07 00:43:50;;;;;;;58.30;20.57;;;2.20;1.00;;;;;;4406187;28;659271;-75
2024/03/07 00:46:39;;;;;;;59.13;21.10;;;2.20;1.00;;;;;;4394558;28;657844;-75
2024/03/07 00:49:28;;;;;;;57.53;19.47;;;2.20;1.00;;;;;;4430031;28;657852;-75
2024/03/07 00:52:15;;;;;;;63.33;22.90;;;2.20;1.00;;;;;;4386319;28;659187;-75
2024/03/07 00:55:03;;;;;;;50.80;20.20;;;2.20;1.00;;;;;;4382767;28;657303;-75
2024/03/07 00:57:50;;;;;;;55.80;20.87;;;2.20;1.00;;;;;;4399553;28;657831;-75
2024/03/07 01:00:37;;;;;;;54.40;21.20;;;2.20;1.00;;;;;;4379788;28;657636;-75
2024/03/07 01:03:26;;;;;;;51.93;20.37;;;2.40;99.90;;;;;;4395934;28;657658;-75
2024/03/07 01:06:14;;;;;;;47.23;19.43;;;2.30;1.00;;;;;;4378728;28;658988;-75
2024/03/07 01:09:01;;;;;;;52.77;20.57;;;2.20;1.00;;;;;;4393155;28;657924;-75
2024/03/07 01:11:49;;;;;;;49.77;18.67;;;2.30;1.00;;;;;;4387139;28;658047;-75
2024/03/07 01:14:36;;;;;;;52.47;20.13;;;2.20;99.90;;;;;;4407476;28;657842;-75
2024/03/07 01:17:24;;;;;;;47.40;19.15;;;2.20;99.90;;;;;;4377624;28;658687;-75
2024/03/07 01:20:12;;;;;;;51.67;19.47;;;2.20;99.90;;;;;;4412325;28;659694;-75
2024/03/07 01:23:00;;;;;;;52.73;20.73;;;2.20;99.90;;;;;;4375771;28;659670;-75
2024/03/07 01:25:47;;;;;;;52.73;20.63;;;2.20;99.90;;;;;;4388603;28;659021;-75
2024/03/07 01:28:34;;;;;;;58.10;21.97;;;2.20;99.90;;;;;;4356650;28;659786;-75
2024/03/07 01:31:22;;;;;;;51.50;19.67;;;2.20;99.90;;;;;;4387091;28;658835;-75
2024/03/07 01:34:09;;;;;;;54.73;20.93;;;2.20;99.90;;;;;;4393061;28;658935;-75
2024/03/07 01:36:58;;;;;;;57.57;19.80;;;2.20;99.90;;;;;;4423718;28;658417;-75
2024/03/07 01:39:46;;;;;;;54.70;20.10;;;2.30;99.90;;;;;;4400586;28;659850;-75
2024/03/07 01:42:33;;;;;;;54.30;21.73;;;2.30;99.90;;;;;;4408532;28;658324;-75
2024/03/07 01:45:21;;;;;;;53.70;19.83;;;2.20;99.90;;;;;;4431670;28;659124;-75
2024/03/07 01:48:09;;;;;;;57.07;20.33;;;2.20;99.90;;;;;;4402028;28;659366;-75
2024/03/07 01:50:57;;;;;;;49.60;18.52;;;2.20;99.90;;;;;;4421065;28;659594;-75
2024/03/07 01:53:45;;;;;;;64.70;22.20;;;2.20;99.90;;;;;;4390379;28;659031;-75
2024/03/07 01:56:33;;;;;;;68.63;24.00;;;2.10;1.00;;;;;;4400769;28;658509;-75
2024/03/07 01:59:21;;;;;;;44.97;14.33;;;2.10;1.00;;;;;;4421641;28;659024;-75
2024/03/07 02:02:08;;;;;;;56.17;20.60;;;2.00;99.90;;;;;;4406958;28;657548;-75
2024/03/07 02:04:55;;;;;;;59.27;22.03;;;2.00;99.90;;;;;;4436175;28;659968;-75
2024/03/07 02:07:43;;;;;;;58.37;21.13;;;2.00;99.90;;;;;;4403196;28;658438;-75
2024/03/07 02:10:32;;;;;;;47.40;17.27;;;2.10;99.90;;;;;;4424397;28;659283;-75
2024/03/07 02:13:19;;;;;;;58.67;19.67;;;2.10;99.90;;;;;;4416648;28;659497;-75
2024/03/07 02:16:07;;;;;;;57.53;21.23;;;2.10;21.80;;;;;;4422719;28;658793;-75
2024/03/07 02:18:55;;;;;;;53.27;19.70;;;2.10;94.10;;;;;;4401637;28;659695;-75
2024/03/07 02:21:44;;;;;;;49.60;19.23;;;2.10;99.90;;;;;;4421269;28;659463;-75
2024/03/07 02:24:32;;;;;;;64.53;22.50;;;2.10;1.00;;;;;;4422975;28;658434;-75
2024/03/07 02:27:19;;;;;;;52.13;20.23;;;2.10;1.00;;;;;;4409050;28;657776;-75
2024/03/07 02:30:08;;;;;;;56.70;21.10;;;2.10;1.00;;;;;;4419320;28;657233;-75
2024/03/07 02:32:56;;;;;;;55.80;22.20;;;2.10;1.00;;;;;;4401852;28;657816;-75
2024/03/07 02:35:43;;;;;;;54.10;21.15;;;2.10;1.00;;;;;;4406288;28;657314;-75
2024/03/07 02:38:32;;;;;;;55.27;21.00;;;2.10;1.00;;;;;;4428126;28;658063;-75
2024/03/07 02:41:19;;;;;;;52.70;22.33;;;2.10;1.00;;;;;;4403071;28;658529;-75
2024/03/07 02:44:07;;;;;;;57.00;22.80;;;2.10;1.00;;;;;;4411436;28;658230;-75
2024/03/07 02:46:54;;;;;;;58.80;22.60;;;2.10;1.00;;;;;;4402410;28;657943;-75
2024/03/07 02:49:41;;;;;;;63.10;19.93;;;2.00;1.00;;;;;;4421652;28;657744;-75
2024/03/07 02:52:29;;;;;;;66.83;24.60;;;2.10;29.40;;;;;;4391252;28;657962;-75
2024/03/07 02:55:18;;;;;;;60.63;22.57;;;2.00;94.80;;;;;;4402137;28;658866;-75
2024/03/07 02:58:06;;;;;;;56.87;22.17;;;2.00;99.90;;;;;;4383306;28;658499;-75
2024/03/07 03:00:58;;;;;;;77.63;26.20;;;2.00;99.90;;;;;;4379221;28;659380;-75
2024/03/07 03:03:45;;;;;;;83.30;27.07;;;1.90;99.90;;;;;;4395452;28;659578;-75
2024/03/07 03:06:32;;;;;;;82.10;26.67;;;1.90;99.90;;;;;;4408845;28;658951;-75
2024/03/07 03:09:21;;;;;;;67.87;24.63;;;1.80;99.90;;;;;;4411886;28;658511;-75
2024/03/07 03:12:10;;;;;;;60.30;22.33;;;1.80;99.90;;;;;;4383428;28;658902;-75
2024/03/07 03:14:58;;;;;;;80.45;25.63;;;1.80;99.90;;;;;;4391763;28;659072;-75
2024/03/07 03:17:46;;;;;;;68.63;24.33;;;1.80;99.90;;;;;;4406064;28;659681;-75
2024/03/07 03:20:34;;;;;;;68.63;25.73;;;1.80;99.90;;;;;;4394261;28;658401;-75
2024/03/07 03:23:21;;;;;;;67.97;25.33;;;1.80;51.30;;;;;;4424001;28;658602;-75
2024/03/07 03:26:09;;;;;;;50.17;18.43;;;1.80;28.90;;;;;;4388456;28;658946;-75
2024/03/07 03:28:57;;;;;;;62.63;23.17;;;1.80;1.00;;;;;;4424276;28;657969;-74
2024/03/07 03:31:45;;;;;;;63.07;24.27;;;1.70;1.00;;;;;;4404265;28;659020;-75
2024/03/07 03:34:33;;;;;;;57.27;21.50;;;1.70;1.00;;;;;;4409177;28;657452;-75
2024/03/07 03:37:21;;;;;;;60.33;22.27;;;1.70;1.00;;;;;;4410561;28;657108;-75
2024/03/07 03:40:10;;;;;;;51.77;17.73;;;1.60;1.00;;;;;;4391436;28;657312;-75
2024/03/07 03:42:57;;;;;;;65.17;21.83;;;1.60;1.00;;;;;;4396964;28;658434;-75
2024/03/07 03:45:47;;;;;;;55.83;19.07;;;1.60;1.00;;;;;;4405840;28;657454;-75
2024/03/07 03:48:34;;;;;;;57.93;20.27;;;1.60;1.00;;;;;;4383062;28;658563;-75
2024/03/07 03:51:22;;;;;;;61.63;22.40;;;1.50;1.00;;;;;;4402111;28;658699;-75
2024/03/07 03:54:09;;;;;;;58.93;22.30;;;1.50;1.00;;;;;;4386279;28;658113;-74
2024/03/07 03:56:58;;;;;;;58.60;22.43;;;1.50;1.00;;;;;;4411379;28;658031;-74
2024/03/07 03:59:45;;;;;;;62.97;22.13;;;1.50;1.00;;;;;;4396524;28;658675;-74
2024/03/07 04:02:34;;;;;;;58.07;22.10;;;1.60;1.00;;;;;;4406130;28;657796;-75
2024/03/07 04:05:22;;;;;;;46.67;18.27;;;1.60;1.00;;;;;;4421051;28;657687;-75
2024/03/07 04:08:10;;;;;;;64.60;22.87;;;1.50;1.00;;;;;;4396195;28;659031;-74
2024/03/07 04:10:58;;;;;;;59.67;23.57;;;1.50;1.00;;;;;;4409913;28;657954;-74
2024/03/07 04:13:46;;;;;;;65.70;22.57;;;1.50;1.00;;;;;;4424733;28;658313;-75
2024/03/07 04:16:33;;;;;;;49.00;18.07;;;1.40;1.00;;;;;;4398766;28;657584;-74
2024/03/07 04:19:22;;;;;;;60.03;21.90;;;1.40;1.00;;;;;;4422981;28;658236;-75
2024/03/07 04:22:09;;;;;;;61.50;23.10;;;1.40;1.00;;;;;;4391422;28;658618;-75
2024/03/07 04:24:56;;;;;;;65.40;24.17;;;1.30;1.00;;;;;;4417578;28;657429;-75
2024/03/07 04:27:44;;;;;;;65.70;23.13;;;1.40;1.00;;;;;;4389640;28;657585;-75
2024/03/07 04:30:31;;;;;;;63.87;22.20;;;1.30;1.00;;;;;;4416347;28;658449;-74
2024/03/07 04:33:19;;;;;;;60.87;21.40;;;1.30;1.00;;;;;;4393912;28;657719;-75
2024/03/07 04:36:08;;;;;;;60.97;22.37;;;1.30;1.00;;;;;;4431653;28;657830;-74
2024/03/07 04:38:55;;;;;;;62.77;23.13;;;1.30;99.90;;;;;;4407396;28;658200;-74
2024/03/07 04:41:43;;;;;;;58.10;20.00;;;1.30;99.90;;;;;;4400063;28;659155;-75
2024/03/07 04:44:30;;;;;;;68.17;23.70;;;1.30;1.00;;;;;;4426603;28;659753;-74
2024/03/07 04:47:18;;;;;;;71.18;24.80;;;1.20;1.00;;;;;;4408862;28;657644;-74
2024/03/07 04:50:07;;;;;;;65.43;23.80;;;1.30;99.90;;;;;;4428856;28;658384;-75
2024/03/07 04:52:56;;;;;;;63.37;24.03;;;1.20;99.90;;;;;;4399224;28;659626;-74
2024/03/07 04:55:43;;;;;;;63.40;22.33;;;1.30;99.90;;;;;;4403313;28;659638;-74
2024/03/07 04:58:30;;;;;;;61.83;22.97;;;1.20;99.90;;;;;;4423552;28;659493;-74
2024/03/07 05:01:17;;;;;;;61.93;26.07;;;1.20;1.00;;;;;;4401881;28;658586;-74
2024/03/07 05:04:05;;;;;;;63.70;22.97;;;1.10;1.00;;;;;;4427435;28;657836;-75
2024/03/07 05:06:53;;;;;;;74.10;25.40;;;1.20;1.00;;;;;;4404116;28;657788;-74
2024/03/07 05:09:41;;;;;;;53.27;19.53;;;1.20;1.00;;;;;;4425933;28;658479;-74
2024/03/07 05:12:28;;;;;;;97.43;28.80;;;1.20;1.00;;;;;;4392208;28;658134;-74
2024/03/07 05:15:17;;;;;;;74.88;25.33;;;1.20;1.00;;;;;;4421471;28;658328;-74
2024/03/07 05:18:04;;;;;;;73.87;24.73;;;1.20;1.00;;;;;;4388964;28;657716;-74
2024/03/07 05:20:52;;;;;;;67.80;23.97;;;1.20;99.90;;;;;;4408697;28;657542;-74
2024/03/07 05:23:39;;;;;;;81.97;28.33;;;1.20;99.90;;;;;;4390238;28;658755;-74
2024/03/07 05:26:27;;;;;;;87.83;28.43;;;1.20;99.90;;;;;;4433228;28;658975;-74
2024/03/07 05:29:17;;;;;;;60.53;22.93;;;1.10;99.90;;;;;;4386876;28;659566;-74
2024/03/07 05:32:21;;;;;;;88.80;29.57;;;1.20;99.90;;;;;;4379866;28;660149;-74
2024/03/07 05:35:10;;;;;;;69.20;24.37;;;1.10;99.90;;;;;;4388894;28;658781;-74
2024/03/07 05:37:59;;;;;;;70.73;23.67;;;1.10;99.90;;;;;;4394648;28;658369;-74
2024/03/07 05:40:48;;;;;;;86.00;27.37;;;1.20;99.90;;;;;;4424133;28;658722;-74
2024/03/07 05:43:36;;;;;;;79.33;27.43;;;1.20;99.90;;;;;;4389930;28;659546;-74
2024/03/07 05:46:24;;;;;;;77.00;26.50;;;1.20;99.90;;;;;;4389429;28;658822;-74
2024/03/07 05:49:11;;;;;;;85.13;25.60;;;1.20;99.90;;;;;;4400894;28;659344;-74
2024/03/07 05:51:58;;;;;;;105.37;30.33;;;1.20;99.90;;;;;;4383064;28;658920;-74
2024/03/07 05:54:45;;;;;;;85.00;26.87;;;1.10;99.90;;;;;;4408358;28;660119;-74
2024/03/07 05:57:33;;;;;;;103.90;31.30;;;1.10;1.00;;;;;;4376720;28;659177;-74
2024/03/07 06:00:26;;;;;;;76.40;26.80;;;1.10;99.90;;;;;;4401610;28;660097;-74
2024/03/07 06:03:16;;;;;;;72.87;26.17;;;1.10;99.90;;;;;;4346583;28;658803;-74
2024/03/07 06:06:04;;;;;;;86.67;28.93;;;1.10;99.90;;;;;;4403587;28;658073;-74
2024/03/07 06:08:51;;;;;;;74.53;26.30;;;1.10;99.90;;;;;;4416802;28;658464;-74
2024/03/07 06:11:39;;;;;;;74.73;27.50;;;1.10;99.90;;;;;;4405166;28;659166;-74
2024/03/07 06:14:26;;;;;;;106.73;31.90;;;1.10;99.90;;;;;;4426388;28;658973;-74
2024/03/07 06:17:15;;;;;;;76.80;26.40;;;1.10;99.90;;;;;;4407684;28;659878;-74
2024/03/07 06:20:03;;;;;;;61.07;21.87;;;1.00;99.90;;;;;;4417158;28;658905;-74
2024/03/07 06:22:52;;;;;;;70.28;23.40;;;1.10;1.00;;;;;;4422035;28;659501;-74
2024/03/07 06:25:47;;;;;;;77.93;26.43;;;1.10;99.90;;;;;;4407619;28;658111;-73
2024/03/07 06:28:34;;;;;;;117.27;35.93;;;1.10;99.90;;;;;;4397895;28;658301;-74
2024/03/07 06:31:21;;;;;;;98.90;33.20;;;1.00;99.90;;;;;;4427142;28;659915;-73
2024/03/07 06:34:10;;;;;;;86.80;26.40;;;1.00;1.00;;;;;;4405664;28;659469;-74
2024/03/07 06:36:57;;;;;;;135.90;40.93;;;1.00;1.00;;;;;;4418292;28;657720;-74
2024/03/07 06:39:45;;;;;;;93.60;29.87;;;1.00;1.00;;;;;;4415927;28;659430;-74
2024/03/07 06:42:33;;;;;;;117.20;36.83;;;1.00;1.00;;;;;;4420616;28;657352;-74
2024/03/07 06:45:20;;;;;;;100.67;33.30;;;1.00;1.00;;;;;;4424596;28;658363;-73
2024/03/07 06:48:08;;;;;;;86.13;27.40;;;1.10;1.00;;;;;;4402114;28;658537;-74
2024/03/07 06:50:56;;;;;;;76.50;27.03;;;1.20;1.00;;;;;;4427888;28;657695;-74
2024/03/07 06:53:45;;;;;;;85.90;28.87;;;1.10;1.00;;;;;;4386473;28;658127;-74
2024/03/07 06:56:33;;;;;;;121.38;36.88;;;1.10;1.00;;;;;;4375946;28;657886;-74
2024/03/07 06:59:20;;;;;;;99.47;32.23;;;1.00;99.90;;;;;;4397991;28;659522;-74
2024/03/07 07:02:10;;;;;;;79.90;28.27;;;1.10;1.00;;;;;;4385427;28;658632;-74
2024/03/07 07:04:57;;;;;;;90.77;29.27;;;1.10;1.00;;;;;;4383447;28;658312;-73
2024/03/07 07:07:46;;;;;;;167.10;40.17;;;1.10;99.90;;;;;;4418878;28;659835;-73
2024/03/07 07:10:33;;;;;;;234.05;54.08;;;1.10;99.90;;;;;;4379645;28;659385;-74
2024/03/07 07:13:21;;;;;;;119.43;34.37;;;1.10;99.90;;;;;;4406858;28;660624;-74
2024/03/07 07:16:08;;;;;;;85.97;28.47;;;1.10;1.00;;;;;;4390955;28;660035;-74
2024/03/07 07:18:56;;;;;;;156.00;42.63;;;1.10;1.00;;;;;;4401650;28;658311;-74
2024/03/07 07:21:43;;;;;;;64.70;22.33;;;1.10;1.00;;;;;;4375538;28;658552;-73
2024/03/07 07:24:34;;;;;;;85.50;30.03;;;1.10;99.90;;;;;;4392861;28;658062;-74
2024/03/07 07:27:21;;;;;;;91.70;31.13;;;1.10;99.90;;;;;;4382547;28;659214;-74
2024/03/07 07:30:09;;;;;;;62.38;24.20;;;1.10;99.90;;;;;;4374760;28;658832;-74
2024/03/07 07:32:57;;;;;;;75.63;28.20;;;1.10;99.90;;;;;;4406884;28;659009;-74
2024/03/07 07:35:44;;;;;;;68.27;24.27;;;1.10;99.90;;;;;;4389157;28;658547;-74
2024/03/07 07:38:31;;;;;;;66.40;24.90;;;1.10;99.90;;;;;;4411802;28;659304;-74
2024/03/07 07:41:20;;;;;;;75.37;27.30;;;1.10;47.20;;;;;;4386178;28;659155;-74
2024/03/07 07:44:08;;;;;;;74.70;27.20;;;1.00;1.00;;;;;;4405737;28;659321;-73
2024/03/07 07:46:55;;;;;;;93.63;30.20;;;1.00;1.00;;;;;;4411743;28;658091;-74
2024/03/07 07:49:42;;;;;;;81.05;28.02;;;1.00;99.90;;;;;;4395390;28;658241;-74
2024/03/07 07:52:30;;;;;;;73.80;26.83;;;1.00;99.90;;;;;;4406068;28;659164;-74
2024/03/07 07:55:18;;;;;;;86.43;27.67;;;1.10;99.90;;;;;;4418221;28;658990;-74
2024/03/07 07:58:07;;;;;;;104.00;31.00;;;1.10;99.90;;;;;;4426750;28;659624;-74
2024/03/07 08:00:54;;;;;;;102.53;32.67;;;1.00;49.00;;;;;;4402397;28;661315;-74
2024/03/07 08:03:41;;;;;;;107.73;32.87;;;1.00;99.90;;;;;;4428996;28;659333;-74
2024/03/07 08:06:30;;;;;;;88.00;28.40;;;1.10;82.20;;;;;;4412652;28;660217;-74
2024/03/07 08:09:17;;;;;;;108.20;34.40;;;1.00;99.90;;;;;;4428055;28;658290;-74
2024/03/07 08:12:06;;;;;;;109.43;33.93;;;1.00;87.30;;;;;;4399842;28;660561;-74
2024/03/07 08:14:54;;;;;;;95.83;32.17;;;1.00;26.80;;;;;;4404937;28;659679;-74
2024/03/07 08:17:44;;;;;;;91.40;30.30;;;1.10;34.10;;;;;;4418289;28;658476;-74
2024/03/07 08:20:32;;;;;;;91.27;27.80;;;1.10;37.30;;;;;;4395359;28;658905;-74
2024/03/07 08:23:19;;;;;;;80.10;26.43;;;1.20;1.00;;;;;;4399116;28;659813;-74
2024/03/07 08:26:06;;;;;;;86.87;29.80;;;1.20;1.00;;;;;;4419362;28;657917;-74
2024/03/07 08:28:54;;;;;;;74.53;27.53;;;1.20;1.00;;;;;;4393388;28;658101;-74
2024/03/07 08:31:44;;;;;;;78.87;30.30;;;1.20;1.00;;;;;;4424989;28;657844;-74
2024/03/07 08:34:31;;;;;;;65.93;23.30;;;1.20;1.00;;;;;;4393569;28;658118;-74
2024/03/07 08:37:18;;;;;;;75.40;26.50;;;1.30;99.90;;;;;;4398938;28;657359;-74
2024/03/07 08:40:07;;;;;;;75.93;27.77;;;1.20;99.90;;;;;;4411409;28;659276;-74
2024/03/07 08:42:55;;;;;;;63.40;22.23;;;1.20;99.90;;;;;;4400001;28;659272;-74
2024/03/07 08:45:42;;;;;;;77.00;26.80;;;1.30;1.00;;;;;;4416198;28;658897;-74
2024/03/07 08:48:31;;;;;;;69.57;26.07;;;1.20;51.60;;;;;;4428591;28;658437;-74
2024/03/07 08:51:18;;;;;;;67.90;25.43;;;1.30;99.70;;;;;;4396087;28;659055;-74
2024/03/07 08:54:06;;;;;;;71.57;26.67;;;1.30;99.90;;;;;;4423164;28;659066;-74
2024/03/07 08:56:53;;;;;;;70.37;25.23;;;1.30;99.90;;;;;;4399239;28;658774;-74
2024/03/07 08:59:40;;;;;;;70.80;25.77;;;1.40;99.90;;;;;;4412409;28;659558;-74
2024/03/07 09:02:28;;;;;;;64.78;24.48;;;1.40;1.00;;;;;;4400946;28;658879;-74
2024/03/07 09:05:16;;;;;;;75.13;28.87;;;1.40;1.00;;;;;;4417219;28;659035;-74
2024/03/07 09:08:05;;;;;;;70.50;28.07;;;1.40;1.00;;;;;;4397727;28;657599;-74
2024/03/07 09:10:55;;;;;;;84.30;30.43;;;1.40;1.00;;;;;;4416049;28;657221;-74
2024/03/07 09:13:42;;;;;;;77.63;29.27;;;1.50;1.00;;;;;;4420951;28;658139;-74
2024/03/07 09:16:29;;;;;;;75.47;25.47;;;1.50;1.00;;;;;;4403049;28;658446;-74
2024/03/07 09:19:19;;;;;;;71.28;25.10;;;1.60;1.00;;;;;;4422392;28;657518;-75
2024/03/07 09:22:09;;;;;;;73.63;26.20;;;1.50;99.90;;;;;;4403425;28;657446;-74
2024/03/07 09:24:56;;;;;;;80.30;28.13;;;1.50;99.90;;;;;;4398106;28;659458;-74
2024/03/07 09:27:43;;;;;;;74.30;25.87;;;1.40;99.90;;;;;;4393403;28;658865;-74
2024/03/07 09:30:30;;;;;;;113.53;31.67;;;1.50;99.90;;;;;;4418070;28;659314;-74
2024/03/07 09:33:19;;;;;;;55.55;20.48;;;1.40;1.00;;;;;;4395196;28;659548;-74
2024/03/07 09:36:07;;;;;;;88.83;27.97;;;1.50;1.00;;;;;;4422520;28;657285;-74
2024/03/07 09:38:56;;;;;;;69.60;25.87;;;1.40;99.90;;;;;;4405079;28;657477;-74
2024/03/07 09:41:44;;;;;;;87.60;29.73;;;1.40;1.00;;;;;;4396238;28;658557;-74
2024/03/07 09:44:31;;;;;;;89.80;30.67;;;1.40;1.00;;;;;;4423122;28;657732;-74
2024/03/07 09:47:18;;;;;;;91.50;30.50;;;1.40;1.00;;;;;;4407473;28;658261;-74
2024/03/07 09:50:08;;;;;;;103.43;33.57;;;1.40;1.00;;;;;;4420339;28;658251;-74
2024/03/07 09:52:55;;;;;;;85.50;27.63;;;1.50;65.20;;;;;;4388333;28;659998;-75
2024/03/07 09:55:44;;;;;;;91.23;30.57;;;1.50;99.90;;;;;;4397529;28;658684;-74
2024/03/07 09:58:32;;;;;;;69.80;23.37;;;1.50;1.00;;;;;;4409341;28;658386;-74
2024/03/07 10:01:21;;;;;;;79.65;27.58;;;1.60;1.00;;;;;;4387891;28;658124;-74
2024/03/07 10:04:11;;;;;;;89.33;31.23;;;1.50;1.00;;;;;;4382911;28;658265;-75
2024/03/07 10:06:59;;;;;;;86.40;26.20;;;1.50;1.00;;;;;;4386257;28;658432;-75
2024/03/07 10:09:47;;;;;;;112.53;33.17;;;1.40;1.00;;;;;;4415465;28;658211;-75
2024/03/07 10:12:37;;;;;;;93.07;31.27;;;1.40;1.00;;;;;;4389221;28;659697;-75
2024/03/07 10:15:29;;;;;;;99.17;30.87;;;1.50;1.00;;;;;;4398937;28;658321;-75
2024/03/07 10:18:18;;;;;;;86.20;31.33;;;1.50;99.90;;;;;;4401711;28;658536;-74
2024/03/07 10:21:05;;;;;;;90.67;32.23;;;1.40;99.90;;;;;;4386706;28;659496;-75
2024/03/07 10:24:05;;;;;;;111.00;34.93;;;1.30;1.00;;;;;;4392211;28;659317;-75
2024/03/07 10:26:52;;;;;;;133.50;38.40;;;1.30;1.00;;;;;;4383317;28;659644;-74
2024/03/07 10:29:41;;;;;;;77.63;28.10;;;1.30;1.00;;;;;;4428248;28;659545;-75
2024/03/07 10:32:29;;;;;;;101.33;32.60;;;1.40;1.00;;;;;;4411163;28;657785;-74
2024/03/07 10:35:22;;;;;;;66.40;26.75;;;1.50;99.90;;;;;;4412460;28;658561;-75
2024/03/07 10:38:11;;;;;;;112.77;37.40;;;1.50;99.90;;;;;;4368747;28;659304;-74
2024/03/07 10:40:58;;;;;;;102.40;36.33;;;1.60;99.90;;;;;;4409466;28;659609;-74
2024/03/07 10:43:46;;;;;;;92.83;31.40;;;1.60;99.90;;;;;;4422686;28;660690;-74
2024/03/07 10:46:36;;;;;;;63.53;24.00;;;1.60;99.90;;;;;;4395891;28;658480;-75
2024/03/07 10:49:24;;;;;;;67.07;26.60;;;1.70;99.90;;;;;;4398209;28;658561;-75
2024/03/07 10:52:19;;;;;;;71.27;27.83;;;1.80;99.90;;;;;;4420453;28;659367;-74
2024/03/07 10:55:10;;;;;;;75.97;27.70;;;1.90;1.00;;;;;;4393859;28;658897;-75
2024/03/07 10:58:01;;;;;;;67.17;24.17;;;1.90;99.90;;;;;;4369942;28;658062;-74
2024/03/07 11:00:48;;;;;;;64.97;25.93;;;2.00;1.00;;;;;;4384534;28;659093;-75
2024/03/07 11:03:36;;;;;;;74.63;27.13;;;2.00;99.90;;;;;;4410894;28;659253;-74
2024/03/07 11:06:24;;;;;;;64.17;24.80;;;2.00;99.90;;;;;;4395018;28;659023;-74
2024/03/07 11:09:11;;;;;;;46.07;17.93;;;2.00;1.00;;;;;;4401096;28;658916;-74
2024/03/07 11:11:59;;;;;;;55.43;21.07;;;1.90;1.00;;;;;;4391994;28;658151;-74
2024/03/07 11:14:47;;;;;;;71.30;25.07;;;1.90;1.00;;;;;;4417381;28;657406;-74
2024/03/07 11:17:36;;;;;;;86.63;31.30;;;1.90;1.00;;;;;;4384990;28;659166;-74
2024/03/07 11:20:25;;;;;;;74.50;29.07;;;2.00;1.00;;;;;;4389862;28;657460;-74
2024/03/07 11:23:28;;;;;;;64.37;25.00;;;2.20;99.90;;;;;;4400236;28;657865;-74
2024/03/07 11:26:15;;;;;;;62.23;23.33;;;2.20;99.90;;;;;;4390418;28;659071;-74
2024/03/07 11:29:04;;;;;;;68.27;24.43;;;2.40;99.90;;;;;;4398532;28;658708;-74
2024/03/07 11:31:54;;;;;;;66.50;24.43;;;2.50;1.00;;;;;;4412711;28;659884;-75
2024/03/07 11:34:42;;;;;;;60.10;26.83;;;2.60;1.00;;;;;;4392600;28;656986;-75
2024/03/07 11:37:43;;;;;;;58.60;24.13;;;2.80;99.90;;;;;;4375044;28;658814;-75
2024/03/07 11:40:48;;;;;;;60.47;26.10;;;2.90;1.00;;;;;;4391397;28;658838;-75
2024/03/07 11:43:36;;;;;;;60.27;25.27;;;3.20;1.00;;;;;;4406115;28;658293;-75
2024/03/07 11:46:23;;;;;;;66.83;25.90;;;3.30;1.00;;;;;;4401211;28;657693;-75
2024/03/07 11:49:13;;;;;;;58.93;23.50;;;3.40;99.90;;;;;;4425588;28;658161;-76
2024/03/07 11:52:01;;;;;;;48.73;19.73;;;3.30;1.00;;;;;;4390520;28;659672;-74
2024/03/07 11:54:49;;;;;;;52.47;19.17;;;3.10;1.00;;;;;;4381318;28;657342;-74
2024/03/07 11:57:37;;;;;;;65.10;24.90;;;2.80;99.90;;;;;;4406678;28;656697;-75
2024/03/07 12:00:34;;;;;;;66.77;26.87;;;2.80;1.00;;;;;;4391344;28;658996;-75
2024/03/07 12:03:22;;;;;;;59.60;23.40;;;2.80;99.90;;;;;;4383169;28;658495;-75
2024/03/07 12:06:12;;;;;;;67.67;26.40;;;2.80;99.90;;;;;;4387072;28;659278;-75
2024/03/07 12:09:01;;;;;;;56.50;23.20;;;2.60;99.90;;;;;;4381603;28;659156;-75
2024/03/07 12:11:52;;;;;;;60.17;22.43;;;2.50;1.00;;;;;;4383898;28;659387;-75
2024/03/07 12:14:39;;;;;;;48.10;20.57;;;2.30;1.00;;;;;;4392023;28;658616;-74
2024/03/07 12:17:29;;;;;;;62.47;24.55;;;2.30;1.00;;;;;;4403386;28;658142;-75
2024/03/07 12:20:27;;;;;;;67.57;24.53;;;2.30;1.00;;;;;;4371405;28;657903;-74
2024/03/07 12:23:19;;;;;;;52.83;21.10;;;2.20;1.00;;;;;;4373630;28;658023;-74
2024/03/07 12:26:06;;;;;;;63.90;24.57;;;2.10;1.00;;;;;;4376080;28;657888;-74
2024/03/07 12:28:54;;;;;;;61.63;22.33;;;2.20;1.00;;;;;;4384150;28;657973;-75
2024/03/07 12:31:42;;;;;;;55.10;21.67;;;2.10;1.00;;;;;;4423172;28;657964;-75
2024/03/07 12:34:31;;;;;;;62.97;22.97;;;2.10;1.00;;;;;;4385102;28;658386;-75
2024/03/07 12:37:18;;;;;;;74.17;26.63;;;2.20;1.00;;;;;;4384337;28;657866;-75
2024/03/07 12:40:17;;;;;;;72.80;25.63;;;2.20;1.00;;;;;;4413861;28;659035;-75
2024/03/07 12:43:13;;;;;;;71.77;25.27;;;2.30;99.90;;;;;;4367727;28;658294;-75
2024/03/07 12:46:04;;;;;;;62.03;25.93;;;2.50;99.90;;;;;;4403187;28;659520;-75
2024/03/07 12:48:51;;;;;;;69.13;24.73;;;2.50;1.00;;;;;;4398294;28;659315;-74
2024/03/07 12:51:41;;;;;;;58.50;24.43;;;2.60;1.00;;;;;;4403405;28;657487;-75
2024/03/07 12:54:28;;;;;;;65.63;25.13;;;2.60;1.00;;;;;;4375666;28;657350;-75
2024/03/07 12:57:16;;;;;;;48.97;19.60;;;2.40;1.00;;;;;;4402206;28;658505;-76
2024/03/07 13:00:12;;;;;;;51.43;21.83;;;2.40;1.00;;;;;;4380369;28;658122;-75
2024/03/07 13:03:00;;;;;;;49.87;21.73;;;2.30;1.00;;;;;;4354882;28;658246;-75
2024/03/07 13:05:48;;;;;;;58.50;23.10;;;2.20;1.00;;;;;;4382170;28;658260;-75
2024/03/07 13:08:35;;;;;;;71.93;26.33;;;2.30;1.00;;;;;;4407068;28;659375;-75
2024/03/07 13:11:22;;;;;;;65.53;24.47;;;2.20;1.00;;;;;;4382554;28;657660;-75
2024/03/07 13:14:10;;;;;;;62.83;23.67;;;2.30;1.00;;;;;;4404485;28;658041;-75
2024/03/07 13:17:00;;;;;;;45.67;18.37;;;2.30;1.00;;;;;;4378843;28;657533;-75
2024/03/07 13:19:59;;;;;;;52.93;22.10;;;2.40;99.90;;;;;;4385927;28;657519;-75
2024/03/07 13:22:47;;;;;;;57.90;21.53;;;2.40;1.00;;;;;;4371390;28;659225;-75
2024/03/07 13:25:34;;;;;;;55.50;24.43;;;2.60;1.00;;;;;;4390868;28;658260;-75
2024/03/07 13:28:24;;;;;;;60.03;23.70;;;2.70;99.90;;;;;;4391661;28;657849;-72
2024/03/07 13:31:12;;;;;;;60.73;24.80;;;2.80;99.90;;;;;;4372342;28;658683;-72
2024/03/07 13:34:01;;;;;;;63.93;24.67;;;2.90;99.90;;;;;;4387651;28;659913;-72
2024/03/07 13:36:50;;;;;;;62.03;22.97;;;2.90;1.00;;;;;;4373251;28;659677;-72
2024/03/07 13:39:37;;;;;;;60.97;22.83;;;2.90;1.00;;;;;;4392244;28;658144;-72
2024/03/07 13:42:24;;;;;;;62.13;21.97;;;3.00;1.00;;;;;;4403278;28;657911;-72
2024/03/07 13:45:12;;;;;;;67.80;23.73;;;3.00;99.90;;;;;;4410504;28;658054;-72
2024/03/07 13:48:00;;;;;;;71.97;22.10;;;3.00;99.90;;;;;;4387193;28;659200;-72
2024/03/07 13:50:48;;;;;;;65.40;23.73;;;2.80;1.00;;;;;;4400762;28;659034;-72
2024/03/07 13:53:47;;;;;;;69.13;21.73;;;3.00;1.00;;;;;;4398189;28;658900;-72
2024/03/07 13:56:40;;;;;;;66.37;22.57;;;3.10;1.00;;;;;;4377233;28;657422;-72
2024/03/07 13:59:59;;;;;;;47.13;17.83;;;3.20;99.90;;;;;;4367995;28;658054;-72
2024/03/07 14:03:14;;;;;;;44.97;18.30;;;3.20;99.90;;;;;;4356650;28;658618;-72
2024/03/07 14:06:06;;;;;;;43.70;17.40;;;3.30;99.90;;;;;;4377495;28;658373;-72
2024/03/07 14:09:30;;;;;;;72.17;22.33;;;3.30;1.00;;;;;;4376624;28;659104;-72
2024/03/07 14:12:35;;;;;;;75.93;23.38;;;3.30;99.90;;;;;;4367323;28;657704;-72
2024/03/07 14:15:56;;;;;;;60.60;20.40;;;3.40;99.90;;;;;;4395550;28;658575;-72
2024/03/07 14:19:15;;;;;;;54.03;17.90;;;3.50;1.00;;;;;;4344598;28;659471;-72
2024/03/07 14:22:16;;;;;;;76.93;22.17;;;3.50;1.00;;;;;;4360830;28;657470;-71